Latest Weather Observations for Forbes

IDN60801

Issued at 7:32 pm EDT Thursday 30 March 2017 (issued every 30 minutes, with the page automatically refreshed every 10 minutes)

About weather observations | Map of weather stations | Latest weather observations for NSW | Other Formats
Station Details ID: 065103 Name: FORBES AIRPORT AWS Lat: -33.36 Lon: 147.92 Height: 230.4 m
Data from the previous 72 hours. | See also: Recent months at Forbes
Date/Time
EDT
Temp
°C
App
Temp
°C
Dew
Point
°C
Rel
Hum
%
Delta-T
°C
Wind Press
QNH
hPa
Press
MSL
hPa
Rain since
9am
mm
Dir  Spd
km/h
Gust
km/h
Spd
kts
Gust
kts
30/07:30pm 17.2 11.8 2.4 37 6.8 SW 20 32 11 17 1014.2 1013.2 0.0
30/07:00pm 17.7 11.0 1.7 34 7.3 SSW 26 35 14 19 1013.7 1012.7 0.0
30/06:30pm 18.7 11.8 0.3 29 8.2 SSW 26 37 14 20 1013.1 1012.2 0.0
30/06:00pm 19.5 11.3 0.5 28 8.5 SW 33 46 18 25 1012.7 1011.8 0.0
30/05:30pm 20.1 12.5 0.5 27 8.9 SW 30 43 16 23 1012.2 1011.3 0.0
30/05:00pm 20.5 12.6 2.3 30 8.6 SW 33 46 18 25 1011.8 1010.9 0.0
30/04:30pm 20.9 13.5 4.0 33 8.2 SW 32 46 17 25 1011.6 1010.7 0.0
30/04:00pm 21.1 14.5 4.2 33 8.3 SW 28 43 15 23 1011.4 1010.5 0.0
30/03:30pm 21.0 14.1 4.6 34 8.1 SW 30 46 16 25 1011.2 1010.3 0.0
30/03:00pm 21.0 14.0 6.2 38 7.5 SW 32 43 17 23 1011.3 1010.4 0.0
30/02:30pm 20.8 14.7 6.4 39 7.3 SW 28 44 15 24 1011.3 1010.4 0.0
30/02:00pm 20.6 14.2 6.9 41 7.0 SW 30 43 16 23 1011.7 1010.8 0.0
30/01:30pm 20.2 14.2 6.9 42 6.8 SW 28 37 15 20 1012.1 1011.2 0.0
30/01:00pm 19.7 14.3 7.8 46 6.2 SSW 26 39 14 21 1012.5 1011.6 0.0
30/12:30pm 18.6 12.8 8.0 50 5.5 SW 28 35 15 19 1012.9 1012.0 0.0
30/12:00pm 18.8 14.3 8.5 51 5.4 SW 22 32 12 17 1012.9 1012.0 0.0
30/11:30am 17.5 12.6 8.6 56 4.6 SSW 24 33 13 18 1013.0 1012.1 0.0
30/11:00am 17.6 13.3 7.9 53 5.0 SW 20 30 11 16 1013.0 1012.1 0.0
30/10:30am 17.4 12.9 8.5 56 4.6 SW 22 30 12 16 1012.9 1012.0 0.0
30/10:00am 16.3 12.4 8.5 60 4.0 SSW 19 28 10 15 1013.0 1012.1 0.0
30/09:30am 15.6 10.8 8.8 64 3.5 SSW 24 33 13 18 1012.8 1011.9 0.0
30/09:00am 15.2 10.5 9.1 67 3.2 SSW 24 33 13 18 1012.6 1011.7 1.4
30/08:30am 15.0 11.3 10.0 72 2.6 SSW 20 30 11 16 1012.3 1011.4 1.4
30/08:00am 14.9 11.5 10.5 75 2.3 SSW 19 28 10 15 1011.5 1010.6 1.4
30/07:30am 14.6 11.6 10.8 78 2.0 SW 17 22 9 12 1011.1 1010.2 1.4
30/07:00am 14.8 11.4 10.6 76 2.2 SSW 19 24 10 13 1010.6 1009.7 1.4
30/06:30am 15.8 9.7 10.3 70 2.9 SW 33 43 18 23 1010.5 1009.5 1.4
30/06:00am 17.6 12.3 9.8 60 4.2 SSW 28 39 15 21 1009.8 1008.8 1.4
30/05:30am 18.9 14.2 9.1 53 5.2 SSW 24 37 13 20 1009.0 1008.0 1.4
30/05:00am 19.9 13.9 8.6 48 6.0 SW 30 41 16 22 1008.5 1007.6 1.4
30/04:30am 21.1 16.7 10.3 50 5.9 SW 24 37 13 20 1007.9 1007.0 1.4
30/04:00am 21.6 21.8 19.3 87 1.5 WSW 17 24 9 13 1007.7 1006.8 1.4
30/03:30am 21.5 23.7 20.3 93 0.8 NW 9 13 5 7 1007.5 1006.6 1.4
30/03:00am 21.6 23.7 20.1 91 1.0 N 9 13 5 7 1007.4 1006.5 1.4
30/02:30am 22.2 24.4 20.3 89 1.2 N 9 13 5 7 1007.9 1007.0 1.4
30/02:00am 22.3 24.1 20.4 89 1.2 N 11 15 6 8 1008.1 1007.2 1.4
30/01:30am 22.5 24.3 20.4 88 1.4 N 11 13 6 7 1008.3 1007.4 1.4
30/01:00am 22.8 24.3 20.5 87 1.5 NNW 13 17 7 9 1008.5 1007.6 1.4
30/12:30am 21.6 23.9 20.6 94 0.7 N 9 13 5 7 1008.6 1007.7 1.4
30/12:00am 21.7 24.4 20.7 94 0.7 N 7 9 4 5 1008.5 1007.6 1.4
 
Date/Time
EDT
Temp
°C
App
Temp
°C
Dew
Point
°C
Rel
Hum
%
Delta-T
°C
Wind Press
QNH
hPa
Press
MSL
hPa
Rain since
9am
mm
Dir  Spd
km/h
Gust
km/h
Spd
kts
Gust
kts
29/11:30pm 21.7 23.9 20.3 92 0.9 NNE 9 11 5 6 1008.8 1007.8 1.4
29/11:00pm 21.9 22.4 20.0 89 1.2 NNE 17 20 9 11 1008.8 1007.8 1.4
29/10:30pm 21.9 22.9 20.2 90 1.1 NNE 15 19 8 10 1008.5 1007.6 1.4
29/10:00pm 22.0 23.2 19.9 88 1.4 NNE 13 19 7 10 1008.6 1007.7 1.4
29/09:30pm 22.4 21.5 19.0 81 2.2 NNE 22 26 12 14 1008.6 1007.7 1.4
29/09:16pm 22.5 21.9 18.5 78 2.5 NNE 19 35 10 19 1008.6 1007.7 0.6
29/09:00pm 24.4 25.1 17.9 67 4.1 ENE 11 17 6 9 1007.8 1006.9 0.0
29/08:30pm 23.9 24.0 18.3 71 3.6 NE 15 20 8 11 1007.8 1006.9 0.0
29/08:00pm 24.2 25.5 18.4 70 3.7 ENE 9 11 5 6 1007.7 1006.8 0.0
29/07:30pm 25.4 28.0 17.6 62 4.9 CALM 0 0 0 0 1007.6 1006.7 0.0
29/07:00pm 27.0 29.1 16.3 52 6.7 CALM 0 0 0 0 1007.6 1006.7 0.0
29/06:30pm 28.7 28.5 15.6 45 8.1 SW 11 13 6 7 1007.5 1006.6 0.0
29/06:00pm 29.4 28.0 14.4 40 9.2 SW 15 20 8 11 1007.6 1006.7 0.0
29/05:30pm 30.0 29.3 15.3 41 9.1 SW 13 17 7 9 1007.8 1006.9 0.0
29/05:00pm 30.2 29.0 15.1 40 9.4 SW 15 20 8 11 1007.9 1007.0 0.0
29/04:30pm 30.1 28.6 14.2 38 9.7 SW 15 19 8 10 1008.1 1007.2 0.0
29/04:00pm 30.2 29.9 14.3 38 9.7 SW 9 17 5 9 1008.3 1007.4 0.0
29/03:30pm 29.7 29.0 14.3 39 9.4 WSW 11 19 6 10 1008.9 1007.9 0.0
29/03:00pm 29.9 30.0 14.0 37 9.7 WNW 6 11 3 6 1009.3 1008.3 0.0
29/02:30pm 28.9 28.4 11.9 35 10.0 WSW 6 11 3 6 1009.7 1008.7 0.0
29/02:00pm 29.0 28.6 12.4 36 9.8 NW 6 9 3 5 1010.2 1009.2 0.0
29/01:30pm 28.4 27.7 11.5 35 9.8 N 6 9 3 5 1010.8 1009.9 0.0
29/01:00pm 27.4 26.6 9.7 33 9.9 W 4 9 2 5 1011.2 1010.3 0.0
29/12:30pm 26.4 25.0 8.8 33 9.7 S 6 9 3 5 1011.7 1010.8 0.0
29/12:00pm 25.6 24.3 9.8 37 8.8 S 7 11 4 6 1012.0 1011.1 0.0
29/11:30am 25.0 24.3 11.9 44 7.5 E 7 11 4 6 1012.2 1011.3 0.0
29/11:00am 23.7 23.0 13.3 52 6.1 ESE 9 13 5 7 1012.4 1011.5 0.0
29/10:30am 21.6 21.3 13.2 59 4.9 SE 7 11 4 6 1012.3 1011.4 0.0
29/10:00am 20.2 20.2 13.6 66 3.8 SE 6 9 3 5 1012.6 1011.7 0.0
29/09:30am 18.3 19.0 13.4 73 2.8 SE 2 7 1 4 1012.7 1011.8 0.0
29/09:00am 16.5 15.8 12.1 75 2.4 SE 7 9 4 5 1012.4 1011.5 0.0
29/08:30am 15.0 14.9 12.1 83 1.6 SSE 4 7 2 4 1012.4 1011.5 0.0
29/08:00am 12.8 13.4 11.9 94 0.5 CALM 0 0 0 0 1012.3 1011.4 0.0
29/07:30am 12.0 12.4 11.1 94 0.5 CALM 0 0 0 0 1012.1 1011.2 0.0
29/07:00am 11.8 12.1 10.9 94 0.5 CALM 0 0 0 0 1011.8 1010.9 0.0
29/06:30am 11.8 12.1 10.9 94 0.5 CALM 0 0 0 0 1011.6 1010.7 0.0
29/06:00am 11.9 12.2 10.8 93 0.6 CALM 0 0 0 0 1011.6 1010.7 0.0
29/05:30am 11.9 12.1 10.5 91 0.7 CALM 0 0 0 0 1011.5 1010.6 0.0
29/05:00am 12.2 12.5 10.9 92 0.7 CALM 0 0 0 0 1011.2 1010.3 0.0
29/04:30am 12.3 12.6 10.9 91 0.7 CALM 0 0 0 0 1011.4 1010.5 0.0
29/04:00am 12.9 13.2 11.0 88 1.0 CALM 0 0 0 0 1011.5 1010.6 0.0
29/03:30am 12.5 12.9 11.2 92 0.7 CALM 0 0 0 0 1011.8 1010.9 0.0
29/03:00am 12.7 13.0 10.8 88 1.0 CALM 0 0 0 0 1012.2 1011.3 0.0
29/02:30am 13.1 13.6 11.5 90 0.9 CALM 0 0 0 0 1012.2 1011.3 0.0
29/02:00am 13.5 13.9 11.2 86 1.2 CALM 0 0 0 0 1012.4 1011.5 0.0
29/01:30am 14.1 14.8 12.3 89 1.0 CALM 0 0 0 0 1012.7 1011.8 0.0
29/01:00am 15.1 15.3 11.9 81 1.8 ESE 2 7 1 4 1012.8 1011.9 0.0
29/12:30am 15.3 16.0 12.1 81 1.8 CALM 0 0 0 0 1013.2 1012.3 0.0
29/12:00am 15.4 16.4 13.2 87 1.2 CALM 0 0 0 0 1013.2 1012.3 0.0
 
Date/Time
EDT
Temp
°C
App
Temp
°C
Dew
Point
°C
Rel
Hum
%
Delta-T
°C
Wind Press
QNH
hPa
Press
MSL
hPa
Rain since
9am
mm
Dir  Spd
km/h
Gust
km/h
Spd
kts
Gust
kts
28/11:30pm 15.5 16.5 13.3 87 1.2 CALM 0 0 0 0 1013.6 1012.6 0.0
28/11:00pm 16.8 17.8 13.1 79 2.1 CALM 0 0 0 0 1013.6 1012.6 0.0
28/10:30pm 17.1 18.4 14.0 82 1.8 CALM 0 0 0 0 1013.7 1012.7 0.0
28/10:00pm 16.7 17.8 13.4 81 1.9 CALM 0 0 0 0 1013.7 1012.7 0.0
28/09:30pm 17.9 18.5 11.9 68 3.3 CALM 0 0 0 0 1013.6 1012.6 0.0
28/09:00pm 18.6 19.5 13.0 70 3.2 CALM 0 0 0 0 1013.4 1012.4 0.0
28/08:30pm 19.1 20.1 13.3 69 3.3 CALM 0 0 0 0 1012.9 1012.0 0.0
28/08:00pm 21.3 21.1 9.2 46 6.5 CALM 0 0 0 0 1012.6 1011.7 0.0
28/07:30pm 21.4 20.4 10.9 51 5.8 SW 7 9 4 5 1012.5 1011.6 0.0
28/07:00pm 24.0 21.8 8.0 36 8.6 SW 9 13 5 7 1012.4 1011.5 0.0
28/06:30pm 26.4 24.2 7.9 31 10.0 SW 9 13 5 7 1012.1 1011.2 0.0
28/06:00pm 27.3 24.7 7.7 29 10.6 SW 11 13 6 7 1012.0 1011.1 0.0
28/05:30pm 27.4 24.4 6.2 26 11.2 SW 11 17 6 9 1011.8 1010.9 0.0
28/05:00pm 27.4 24.6 6.8 27 11.0 SW 11 17 6 9 1011.8 1010.9 0.0
28/04:30pm 27.6 25.3 9.0 31 10.3 SW 11 17 6 9 1011.8 1010.9 0.0
28/04:00pm 27.0 24.3 7.5 29 10.5 SW 11 19 6 10 1012.1 1011.2 0.0
28/03:30pm 26.7 24.1 7.7 30 10.3 SW 11 19 6 10 1012.3 1011.4 0.0
28/03:00pm 26.5 23.7 8.5 32 9.9 SSW 13 22 7 12 1012.4 1011.5 0.0
28/02:30pm 26.2 23.2 9.1 34 9.4 SW 15 20 8 11 1012.7 1011.8 0.0
28/02:00pm 25.3 22.4 8.3 34 9.2 SW 13 19 7 10 1013.0 1012.1 0.0
28/01:30pm 24.7 21.8 8.2 35 8.9 S 13 17 7 9 1013.5 1012.5 0.0
28/01:00pm 23.8 21.5 10.5 43 7.4 WSW 13 20 7 11 1014.1 1013.1 0.0
28/12:30pm 23.1 20.9 12.1 50 6.3 WSW 15 20 8 11 1014.5 1013.6 0.0
28/12:00pm 22.1 20.4 12.6 55 5.5 SW 13 17 7 9 1014.8 1013.9 0.0
28/11:30am 21.5 19.8 12.4 56 5.2 SW 13 19 7 10 1014.9 1014.0 0.0
28/11:00am 20.4 19.0 12.1 59 4.7 SW 11 19 6 10 1015.0 1014.1 0.0
28/10:30am 19.9 18.7 12.9 64 4.0 SSW 11 17 6 9 1014.9 1014.0 0.0
28/10:00am 18.9 15.9 11.9 64 3.9 SSW 19 24 10 13 1014.7 1013.8 0.0
28/09:30am 18.1 15.4 11.7 66 3.5 SSW 17 24 9 13 1014.4 1013.5 0.0
28/09:00am 17.6 15.4 12.1 70 3.1 SSW 15 19 8 10 1014.2 1013.2 2.6
28/08:30am 16.8 14.4 11.5 71 2.9 SSW 15 19 8 10 1013.7 1012.7 2.6
28/08:00am 16.4 15.0 12.2 76 2.3 SSW 11 15 6 8 1013.4 1012.4 2.6
28/07:30am 16.1 14.7 12.1 77 2.2 SSW 11 13 6 7 1013.2 1012.3 2.6
28/07:00am 16.1 14.9 12.7 80 1.9 SSW 11 15 6 8 1013.0 1012.1 2.6
28/06:30am 16.6 14.9 12.6 77 2.2 SSW 13 17 7 9 1012.8 1011.9 2.6
28/06:00am 16.9 14.0 12.2 74 2.6 SSW 19 26 10 14 1012.5 1011.6 2.6
28/05:30am 17.3 15.1 13.4 78 2.2 SSW 17 22 9 12 1012.3 1011.4 2.6
28/05:00am 17.8 15.9 14.1 79 2.1 SSW 17 24 9 13 1012.2 1011.3 2.6
28/04:30am 18.0 16.6 14.5 80 2.0 SW 15 20 8 11 1012.2 1011.3 2.6
28/04:00am 18.4 17.1 14.9 80 2.1 SSW 15 19 8 10 1012.3 1011.4 2.6
28/03:30am 18.9 17.4 15.2 79 2.2 SSW 17 22 9 12 1012.3 1011.4 2.6
28/03:00am 19.3 17.0 15.6 79 2.2 SW 22 28 12 15 1012.1 1011.2 2.6
28/02:30am 20.2 19.0 16.0 77 2.5 SW 17 26 9 14 1012.2 1011.3 2.6
28/02:00am 20.9 20.5 17.1 79 2.3 SW 15 22 8 12 1012.2 1011.3 2.6
28/01:30am 22.3 22.7 18.9 81 2.2 SSW 15 20 8 11 1012.0 1011.1 2.6
28/01:00am 23.0 25.3 21.3 90 1.1 SSW 11 19 6 10 1012.1 1011.2 2.6
28/12:30am 22.1 26.1 21.4 96 0.5 NNE 2 9 1 5 1012.0 1011.1 2.6
28/12:00am 22.7 27.2 21.5 93 0.8 CALM 0 0 0 0 1011.7 1010.8 2.6
 
Date/Time
EDT
Temp
°C
App
Temp
°C
Dew
Point
°C
Rel
Hum
%
Delta-T
°C
Wind Press
QNH
hPa
Press
MSL
hPa
Rain since
9am
mm
Dir  Spd
km/h
Gust
km/h
Spd
kts
Gust
kts
27/11:30pm 22.8 26.7 21.8 94 0.7 SW 4 17 2 9 1011.8 1010.9 2.6
27/11:00pm 22.8 27.5 22.0 95 0.5 CALM 0 0 0 0 1011.9 1011.0 2.6
27/10:30pm 22.9 27.7 22.1 95 0.5 CALM 0 0 0 0 1011.8 1010.9 2.6
27/10:00pm 23.2 27.9 22.0 93 0.8 CALM 0 0 0 0 1011.7 1010.8 2.6
27/09:30pm 23.7 28.4 22.0 90 1.1 CALM 0 0 0 0 1011.8 1010.9 2.6
27/09:00pm 24.0 27.7 21.5 86 1.7 ENE 4 9 2 5 1011.7 1010.8 2.6
27/08:30pm 24.9 23.9 20.4 76 3.0 WSW 26 48 14 26 1011.8 1010.9 2.0
27/08:28pm 25.5 24.6 20.7 75 3.2 WSW 26 48 14 26 1012.0 1011.1 1.0
27/08:21pm 27.3 29.1 21.1 69 4.1 NW 13 28 7 15 1011.0 1010.1 0.0
27/08:00pm 26.9 27.7 20.7 69 4.1 NNE 17 20 9 11 1009.0 1008.0 0.0

Other Formats:

Comma delimited format used in spreadsheet applications
http://www.bom.gov.au/fwo/IDN60801/IDN60801.94715.axf

JavaScript Object Notation format (JSON) in row-major order
http://www.bom.gov.au/fwo/IDN60801/IDN60801.94715.json